createdAt,value
2022-10-22T00:00:25.426Z,15.30
2022-10-22T00:05:15.173Z,15.24
2022-10-22T00:10:08.557Z,15.21
2022-10-22T00:14:58.389Z,15.10
2022-10-22T00:19:48.287Z,15.15
2022-10-22T00:24:38.885Z,15.11
2022-10-22T00:29:31.334Z,15.10
2022-10-22T00:34:22.396Z,15.03
2022-10-22T00:39:13.129Z,15.03
2022-10-22T00:44:09.961Z,15.00
2022-10-22T00:49:05.239Z,14.93
2022-10-22T00:53:58.609Z,14.93
2022-10-22T00:58:51.994Z,14.94
2022-10-22T01:03:41.621Z,14.93
2022-10-22T01:08:46.217Z,14.89
2022-10-22T01:13:49.529Z,14.91
2022-10-22T01:18:48.332Z,14.89
2022-10-22T01:24:07.061Z,14.86
2022-10-22T01:29:05.415Z,14.84
2022-10-22T01:33:57.634Z,14.82
2022-10-22T01:38:49.295Z,14.80
2022-10-22T01:43:39.143Z,14.77
2022-10-22T01:48:45.462Z,14.73
2022-10-22T01:59:01.117Z,14.76
2022-10-22T02:04:02.335Z,14.74
2022-10-22T02:08:55.473Z,14.75
2022-10-22T02:13:49.191Z,14.78
2022-10-22T02:18:43.590Z,14.78
2022-10-22T02:23:37.025Z,14.78
2022-10-22T02:28:40.055Z,14.77
2022-10-22T02:33:33.498Z,14.80
2022-10-22T02:38:24.987Z,14.78
2022-10-22T02:43:18.074Z,14.80
2022-10-22T02:48:09.518Z,14.79
2022-10-22T02:53:00.489Z,14.77
2022-10-22T02:57:54.416Z,14.76
2022-10-22T03:02:47.776Z,14.75
2022-10-22T03:07:39.114Z,14.73
2022-10-22T03:12:30.359Z,14.70
2022-10-22T03:17:25.098Z,14.63
2022-10-22T03:22:24.739Z,14.66
2022-10-22T03:27:21.051Z,14.62
2022-10-22T03:32:11.957Z,14.61
2022-10-22T03:37:04.124Z,14.59
2022-10-22T03:41:56.807Z,14.57
2022-10-22T03:46:47.708Z,14.54
2022-10-22T03:51:38.547Z,14.53
2022-10-22T03:56:29.597Z,14.53
2022-10-22T04:01:25.759Z,14.39
2022-10-22T04:06:17.132Z,14.51
2022-10-22T04:11:11.563Z,14.45
2022-10-22T04:16:13.103Z,14.46
2022-10-22T04:21:09.315Z,14.43
2022-10-22T04:26:05.010Z,14.41
2022-10-22T04:30:55.738Z,14.38
2022-10-22T04:35:46.293Z,14.37
2022-10-22T04:40:39.100Z,14.35
2022-10-22T04:45:29.785Z,14.29
2022-10-22T04:50:20.441Z,14.31
2022-10-22T04:55:12.458Z,14.32
2022-10-22T05:00:09.269Z,14.28
2022-10-22T05:05:00.037Z,14.23
2022-10-22T05:09:50.568Z,14.22
2022-10-22T05:14:44.036Z,14.17
2022-10-22T05:19:38.879Z,14.18
2022-10-22T05:24:33.314Z,14.16
2022-10-22T05:29:28.979Z,14.11
2022-10-22T05:34:22.493Z,14.13
2022-10-22T05:39:16.683Z,14.10
2022-10-22T05:44:08.618Z,14.09
2022-10-22T05:49:02.699Z,14.06
2022-10-22T05:53:55.988Z,14.04
2022-10-22T05:58:52.649Z,14.00
2022-10-22T06:03:53.221Z,13.99
2022-10-22T06:08:44.543Z,13.94
2022-10-22T06:13:38.695Z,13.95
2022-10-22T06:18:49.389Z,13.96
2022-10-22T06:23:40.772Z,13.97
2022-10-22T06:28:31.954Z,14.02
2022-10-22T06:33:38.568Z,14.06
2022-10-22T06:38:34.870Z,14.05
2022-10-22T06:43:26.041Z,14.15
2022-10-22T06:48:16.453Z,14.16
2022-10-22T06:53:09.860Z,14.20
2022-10-22T06:58:03.325Z,14.22
2022-10-22T07:03:01.279Z,14.25
2022-10-22T07:07:52.111Z,14.26
2022-10-22T07:12:48.172Z,14.29
2022-10-22T07:17:42.183Z,14.28
2022-10-22T07:22:32.957Z,14.38
2022-10-22T07:27:23.476Z,14.46
2022-10-22T07:32:15.008Z,14.52
2022-10-22T07:37:08.287Z,14.61
2022-10-22T07:41:58.721Z,14.69
2022-10-22T07:46:49.144Z,14.78
2022-10-22T07:51:42.929Z,14.85
2022-10-22T07:56:36.090Z,14.94
2022-10-22T08:01:26.779Z,15.05
2022-10-22T08:06:17.858Z,15.11
2022-10-22T08:11:08.512Z,15.11
2022-10-22T08:16:02.437Z,15.13
2022-10-22T08:20:53.396Z,15.20
2022-10-22T08:25:43.917Z,15.20
2022-10-22T08:30:39.288Z,15.33
2022-10-22T08:35:32.828Z,15.26
2022-10-22T08:40:28.625Z,15.44
2022-10-22T08:45:26.244Z,15.50
2022-10-22T08:50:24.868Z,15.60
2022-10-22T08:55:20.688Z,15.65
2022-10-22T09:00:17.611Z,15.74
2022-10-22T09:05:21.339Z,15.85
2022-10-22T09:10:17.195Z,15.94
2022-10-22T09:15:17.024Z,16.03
2022-10-22T09:20:17.620Z,16.09
2022-10-22T09:25:22.508Z,16.21
2022-10-22T09:30:22.420Z,16.30
2022-10-22T09:35:25.382Z,16.28
2022-10-22T09:40:23.785Z,16.27
2022-10-22T09:45:24.088Z,16.32
2022-10-22T09:50:25.975Z,16.32
2022-10-22T09:55:23.627Z,16.45
2022-10-22T10:00:27.019Z,16.67
2022-10-22T10:05:23.176Z,16.86
2022-10-22T10:10:23.113Z,17.05
2022-10-22T10:15:23.630Z,17.10
2022-10-22T10:20:31.380Z,17.03
2022-10-22T10:25:47.013Z,17.05
2022-10-22T10:30:48.202Z,17.11
2022-10-22T10:35:56.456Z,17.19
2022-10-22T10:40:53.657Z,17.23
2022-10-22T10:46:03.002Z,17.25
2022-10-22T10:51:05.716Z,17.21
2022-10-22T10:56:04.539Z,17.14
2022-10-22T11:01:03.528Z,17.13
2022-10-22T11:05:58.829Z,17.09
2022-10-22T11:10:53.813Z,17.01
2022-10-22T11:15:49.355Z,16.95
2022-10-22T11:21:06.439Z,16.92
2022-10-22T11:25:57.060Z,16.93
2022-10-22T11:30:52.350Z,17.03
2022-10-22T11:35:53.280Z,17.12
2022-10-22T11:40:50.767Z,17.20
2022-10-22T11:45:44.710Z,17.24
2022-10-22T11:51:00.244Z,17.31
2022-10-22T11:55:55.927Z,17.40
2022-10-22T12:00:51.333Z,17.34
2022-10-22T12:05:43.404Z,17.27
2022-10-22T12:10:51.467Z,17.21
2022-10-22T12:15:50.189Z,17.19
2022-10-22T12:20:42.642Z,17.18
2022-10-22T12:25:37.680Z,17.26
2022-10-22T12:30:31.014Z,17.36
2022-10-22T12:35:24.649Z,17.60
2022-10-22T12:40:23.568Z,18.01
2022-10-22T12:45:16.963Z,18.14
2022-10-22T12:50:09.737Z,18.24
2022-10-22T12:55:00.801Z,18.35
2022-10-22T12:59:55.150Z,18.31
2022-10-22T13:05:17.226Z,18.29
2022-10-22T13:10:21.219Z,18.28
2022-10-22T13:15:37.637Z,18.30
2022-10-22T13:20:30.804Z,18.35
2022-10-22T13:25:26.570Z,18.27
2022-10-22T13:30:23.105Z,18.34
2022-10-22T13:35:20.258Z,18.39
2022-10-22T13:40:18.391Z,18.52
2022-10-22T13:45:10.724Z,18.54
2022-10-22T13:50:04.628Z,18.55
2022-10-22T13:54:54.975Z,18.54
2022-10-22T13:59:53.075Z,18.52
2022-10-22T14:04:44.700Z,18.49
2022-10-22T14:09:35.210Z,18.43
2022-10-22T14:14:25.620Z,18.36
2022-10-22T14:19:20.950Z,18.26
2022-10-22T14:24:13.583Z,18.18
2022-10-22T14:29:12.069Z,18.27
2022-10-22T14:34:03.048Z,18.39
2022-10-22T14:38:56.112Z,18.46
2022-10-22T14:43:46.374Z,18.51
2022-10-22T14:48:36.508Z,18.49
2022-10-22T14:53:26.874Z,18.47
2022-10-22T14:58:20.169Z,18.42
2022-10-22T15:03:12.122Z,18.34
2022-10-22T15:08:02.184Z,18.27
2022-10-22T15:12:52.769Z,18.21
2022-10-22T15:17:46.188Z,18.14
2022-10-22T15:22:38.046Z,18.09
2022-10-22T15:27:28.565Z,18.08
2022-10-22T15:32:19.494Z,18.02
2022-10-22T15:37:15.564Z,17.96
2022-10-22T15:42:06.974Z,17.90
2022-10-22T15:46:58.260Z,17.87
2022-10-22T15:51:48.996Z,17.76
2022-10-22T15:56:42.998Z,17.74
2022-10-22T16:01:35.349Z,17.66
2022-10-22T16:06:26.000Z,17.57
2022-10-22T16:11:16.827Z,17.49
2022-10-22T16:16:11.976Z,17.38
2022-10-22T16:21:02.925Z,17.30
2022-10-22T16:25:53.364Z,17.20
2022-10-22T16:30:43.458Z,17.09
2022-10-22T16:35:36.748Z,16.99
2022-10-22T16:40:29.341Z,16.86
2022-10-22T16:45:21.314Z,16.80
2022-10-22T16:50:12.167Z,16.73
2022-10-22T16:55:05.855Z,16.65
2022-10-22T16:59:56.679Z,16.53
2022-10-22T17:04:46.872Z,16.44
2022-10-22T17:09:38.381Z,16.34
2022-10-22T17:14:31.573Z,16.22
2022-10-22T17:19:27.513Z,16.16
2022-10-22T17:24:18.135Z,16.12
2022-10-22T17:29:09.162Z,16.07
2022-10-22T17:34:03.215Z,16.01
2022-10-22T17:39:02.026Z,15.89
2022-10-22T17:43:53.197Z,15.87
2022-10-22T17:48:44.311Z,15.81
2022-10-22T17:53:43.117Z,15.77
2022-10-22T17:58:34.556Z,15.67
2022-10-22T18:03:32.246Z,15.63
2022-10-22T18:08:23.649Z,15.50
2022-10-22T18:13:23.712Z,15.50
2022-10-22T18:18:14.745Z,15.43
2022-10-22T18:23:08.046Z,15.38
2022-10-22T18:27:58.533Z,15.37
2022-10-22T18:32:52.158Z,15.24
2022-10-22T18:37:47.870Z,15.25
2022-10-22T18:42:39.763Z,15.16
2022-10-22T18:47:30.492Z,15.13
2022-10-22T18:52:24.985Z,15.11
2022-10-22T18:57:16.913Z,15.09
2022-10-22T19:02:07.500Z,15.06
2022-10-22T19:07:00.697Z,15.01
2022-10-22T19:11:55.329Z,14.97
2022-10-22T19:16:46.749Z,14.95
2022-10-22T19:21:37.923Z,14.91
2022-10-22T19:26:32.134Z,14.88
2022-10-22T19:31:28.466Z,14.87
2022-10-22T19:36:21.071Z,14.83
2022-10-22T19:41:16.601Z,14.80
2022-10-22T19:46:08.947Z,14.70
2022-10-22T19:51:05.867Z,14.73
2022-10-22T19:56:00.439Z,14.69
2022-10-22T20:00:53.934Z,14.64
2022-10-22T20:05:45.035Z,14.66
2022-10-22T20:10:38.455Z,14.64
2022-10-22T20:15:28.963Z,14.62
2022-10-22T20:20:21.880Z,14.59
2022-10-22T20:25:16.218Z,14.63
2022-10-22T20:30:11.347Z,14.61
2022-10-22T20:35:03.824Z,14.56
2022-10-22T20:39:56.976Z,14.58
2022-10-22T20:44:47.939Z,14.63
2022-10-22T20:49:41.400Z,14.52
2022-10-22T20:54:33.963Z,14.60
2022-10-22T20:59:24.943Z,14.58
2022-10-22T21:04:16.612Z,14.57
2022-10-22T21:09:16.022Z,14.59
2022-10-22T21:14:07.727Z,14.58
2022-10-22T21:18:59.792Z,14.54
2022-10-22T21:23:53.256Z,14.54
2022-10-22T21:28:46.379Z,14.52
2022-10-22T21:33:40.722Z,14.51
2022-10-22T21:38:31.337Z,14.41
2022-10-22T21:43:22.385Z,14.40
2022-10-22T21:48:24.958Z,14.41
2022-10-22T21:53:17.077Z,14.40
2022-10-22T21:58:07.705Z,14.37
2022-10-22T22:02:59.491Z,14.36
2022-10-22T22:07:52.845Z,14.37
2022-10-22T22:12:43.396Z,14.31
2022-10-22T22:17:33.893Z,14.33
2022-10-22T22:22:28.152Z,14.33
2022-10-22T22:27:26.214Z,14.32
2022-10-22T22:32:18.706Z,14.30
2022-10-22T22:37:10.441Z,14.25
2022-10-22T22:42:01.482Z,14.23
2022-10-22T22:46:54.538Z,14.21
2022-10-22T22:51:44.948Z,14.21
2022-10-22T22:56:37.356Z,14.18
2022-10-22T23:01:29.681Z,14.18
2022-10-22T23:06:23.098Z,14.17
2022-10-22T23:11:16.110Z,14.11
2022-10-22T23:16:09.462Z,14.04
2022-10-22T23:21:00.068Z,14.06
2022-10-22T23:25:53.962Z,14.03
2022-10-22T23:30:47.363Z,14.00
2022-10-22T23:35:37.437Z,13.98
2022-10-22T23:40:29.688Z,13.95
2022-10-22T23:45:22.756Z,13.91
2022-10-22T23:50:13.517Z,13.91
2022-10-22T23:55:04.939Z,13.85
2022-10-22T23:59:57.029Z,13.83
